createdAt,value
2018-08-04T00:01:49.684Z,5.50
2018-08-04T00:04:19.014Z,5.23
2018-08-04T00:06:48.356Z,5.77
2018-08-04T00:09:17.134Z,5.93
2018-08-04T00:11:46.549Z,5.47
2018-08-04T00:14:15.869Z,5.92
2018-08-04T00:16:45.220Z,5.63
2018-08-04T00:19:14.605Z,5.60
2018-08-04T00:21:43.922Z,5.67
2018-08-04T00:24:13.256Z,5.50
2018-08-04T00:26:42.588Z,5.80
2018-08-04T00:29:12.124Z,5.57
2018-08-04T00:31:41.519Z,5.43
2018-08-04T00:34:10.896Z,6.27
2018-08-04T00:36:40.268Z,6.33
2018-08-04T00:39:09.828Z,5.60
2018-08-04T00:41:39.213Z,5.97
2018-08-04T00:44:08.599Z,5.80
2018-08-04T00:46:37.967Z,6.10
2018-08-04T00:49:07.342Z,5.93
2018-08-04T00:51:36.719Z,6.00
2018-08-04T00:54:06.090Z,5.57
2018-08-04T00:56:35.421Z,5.83
2018-08-04T00:59:04.843Z,5.63
2018-08-04T01:01:34.279Z,5.97
2018-08-04T01:04:03.735Z,5.77
2018-08-04T01:06:33.133Z,6.20
2018-08-04T01:09:02.604Z,6.50
2018-08-04T01:11:31.935Z,5.97
2018-08-04T01:14:01.288Z,6.10
2018-08-04T01:16:30.633Z,6.80
2018-08-04T01:19:00.096Z,6.83
2018-08-04T01:21:29.448Z,6.63
2018-08-04T01:23:58.816Z,6.17
2018-08-04T01:26:28.189Z,6.77
2018-08-04T01:28:57.579Z,6.30
2018-08-04T01:31:26.978Z,6.00
2018-08-04T01:33:56.807Z,6.43
2018-08-04T01:36:26.208Z,6.53
2018-08-04T01:38:55.600Z,6.47
2018-08-04T01:41:25.049Z,6.40
2018-08-04T01:43:54.386Z,6.67
2018-08-04T01:46:23.728Z,6.10
2018-08-04T01:48:53.124Z,6.97
2018-08-04T01:51:22.454Z,6.63
2018-08-04T01:53:51.774Z,6.33
2018-08-04T01:56:21.209Z,6.57
2018-08-04T01:58:50.581Z,6.47
2018-08-04T02:01:19.920Z,6.87
2018-08-04T02:03:49.265Z,7.43
2018-08-04T02:06:18.272Z,7.27
2018-08-04T02:08:48.038Z,6.47
2018-08-04T02:11:17.375Z,7.10
2018-08-04T02:13:46.721Z,6.70
2018-08-04T02:16:16.077Z,6.60
2018-08-04T02:18:45.409Z,7.00
2018-08-04T02:21:14.807Z,7.13
2018-08-04T02:23:44.157Z,6.87
2018-08-04T02:26:13.530Z,6.20
2018-08-04T02:28:42.934Z,6.50
2018-08-04T02:31:12.319Z,6.63
2018-08-04T02:33:41.684Z,7.27
2018-08-04T02:36:11.040Z,7.37
2018-08-04T02:38:41.264Z,6.90
2018-08-04T02:41:10.664Z,6.47
2018-08-04T02:43:40.041Z,6.90
2018-08-04T02:46:09.400Z,7.10
2018-08-04T02:48:38.754Z,6.33
2018-08-04T02:51:08.176Z,6.40
2018-08-04T02:53:37.562Z,6.47
2018-08-04T02:56:06.930Z,7.10
2018-08-04T02:58:36.308Z,6.70
2018-08-04T03:01:05.749Z,6.20
2018-08-04T03:03:35.092Z,5.80
2018-08-04T03:06:04.506Z,6.93
2018-08-04T03:08:33.925Z,6.33
2018-08-04T03:11:03.438Z,6.30
2018-08-04T03:13:33.206Z,6.83
2018-08-04T03:16:02.562Z,7.23
2018-08-04T03:18:31.912Z,6.23
2018-08-04T03:21:01.256Z,6.93
2018-08-04T03:23:30.615Z,7.27
2018-08-04T03:25:59.969Z,6.60
2018-08-04T03:28:29.317Z,7.07
2018-08-04T03:31:00.821Z,7.57
2018-08-04T03:33:30.188Z,6.67
2018-08-04T03:35:59.600Z,6.67
2018-08-04T03:38:28.973Z,6.70
2018-08-04T03:40:58.378Z,6.70
2018-08-04T03:43:28.424Z,6.87
2018-08-04T03:45:57.800Z,6.67
2018-08-04T03:48:27.157Z,6.90
2018-08-04T03:50:56.604Z,6.73
2018-08-04T03:53:25.978Z,7.20
2018-08-04T03:55:55.459Z,6.73
2018-08-04T03:58:24.818Z,6.67
2018-08-04T04:00:54.317Z,6.93
2018-08-04T04:03:23.688Z,6.93
2018-08-04T04:05:53.025Z,6.97
2018-08-04T04:08:22.372Z,6.90
2018-08-04T04:10:51.831Z,6.57
2018-08-04T04:13:21.196Z,6.87
2018-08-04T04:15:50.607Z,7.40
2018-08-04T04:18:20.000Z,7.03
2018-08-04T04:20:49.432Z,7.70
2018-08-04T04:23:18.789Z,6.53
2018-08-04T04:25:47.554Z,6.83
2018-08-04T04:28:16.882Z,6.60
2018-08-04T04:30:46.332Z,6.40
2018-08-04T04:33:15.704Z,6.60
2018-08-04T04:35:45.065Z,6.83
2018-08-04T04:38:14.421Z,7.27
2018-08-04T04:40:43.842Z,7.27
2018-08-04T04:43:13.189Z,7.37
2018-08-04T04:45:42.545Z,6.83
2018-08-04T04:48:12.406Z,6.93
2018-08-04T04:50:42.178Z,6.73
2018-08-04T04:53:11.656Z,6.90
2018-08-04T04:55:41.127Z,7.50
2018-08-04T04:58:10.497Z,7.23
2018-08-04T05:00:39.908Z,6.90
2018-08-04T05:03:09.321Z,6.83
2018-08-04T05:05:38.666Z,7.33
2018-08-04T05:08:08.052Z,7.20
2018-08-04T05:10:37.525Z,7.57
2018-08-04T05:13:07.180Z,7.33
2018-08-04T05:15:36.601Z,6.90
2018-08-04T05:18:06.091Z,6.30
2018-08-04T05:20:36.260Z,6.90
2018-08-04T05:23:06.089Z,6.93
2018-08-04T05:25:35.465Z,7.30
2018-08-04T05:28:05.983Z,7.33
2018-08-04T05:30:35.355Z,7.20
2018-08-04T05:33:04.761Z,6.80
2018-08-04T05:35:34.137Z,7.10
2018-08-04T05:38:03.516Z,6.80
2018-08-04T05:40:32.886Z,6.40
2018-08-04T05:43:02.240Z,6.30
2018-08-04T05:45:31.603Z,7.07
2018-08-04T05:48:01.023Z,6.57
2018-08-04T05:50:30.396Z,6.87
2018-08-04T05:52:59.860Z,6.60
2018-08-04T05:55:29.279Z,5.73
2018-08-04T05:57:58.788Z,6.67
2018-08-04T06:00:28.331Z,6.30
2018-08-04T06:02:58.128Z,6.37
2018-08-04T06:05:27.916Z,6.37
2018-08-04T06:07:57.825Z,6.47
2018-08-04T06:10:27.650Z,5.97
2018-08-04T06:12:57.632Z,5.87
2018-08-04T06:15:27.333Z,5.77
2018-08-04T06:17:57.124Z,6.00
2018-08-04T06:20:26.736Z,6.13
2018-08-04T06:22:56.284Z,6.77
2018-08-04T06:25:26.093Z,6.03
2018-08-04T06:27:56.218Z,6.03
2018-08-04T06:30:26.880Z,5.80
2018-08-04T06:32:57.316Z,6.43
2018-08-04T06:35:27.744Z,6.00
2018-08-04T06:37:57.780Z,6.03
2018-08-04T06:40:27.683Z,6.57
2018-08-04T06:42:57.965Z,6.10
2018-08-04T06:45:28.427Z,6.05
2018-08-04T06:47:58.192Z,6.00
2018-08-04T06:50:28.151Z,6.00
2018-08-04T06:52:57.927Z,6.10
2018-08-04T06:55:27.791Z,5.92
2018-08-04T06:57:57.822Z,5.65
2018-08-04T07:00:26.896Z,6.20
2018-08-04T07:02:56.469Z,5.83
2018-08-04T07:05:26.118Z,6.20
2018-08-04T07:07:55.798Z,5.85
2018-08-04T07:10:25.522Z,5.92
2018-08-04T07:12:55.054Z,5.80
2018-08-04T07:15:24.560Z,6.30
2018-08-04T07:17:54.139Z,5.72
2018-08-04T07:20:23.806Z,5.85
2018-08-04T07:22:52.833Z,5.72
2018-08-04T07:25:22.369Z,5.70
2018-08-04T07:27:53.285Z,5.45
2018-08-04T07:30:25.687Z,5.45
2018-08-04T07:32:55.293Z,6.08
2018-08-04T07:35:25.101Z,5.25
2018-08-04T07:37:54.639Z,5.83
2018-08-04T07:40:24.266Z,6.30
2018-08-04T07:42:53.713Z,6.00
2018-08-04T07:45:23.334Z,5.62
2018-08-04T07:47:52.906Z,5.70
2018-08-04T07:50:23.531Z,5.53
2018-08-04T07:52:53.339Z,6.17
2018-08-04T07:55:22.895Z,5.80
2018-08-04T07:57:53.085Z,5.40
2018-08-04T08:00:22.516Z,5.67
2018-08-04T08:02:52.605Z,5.42
2018-08-04T08:05:21.971Z,5.87
2018-08-04T08:07:51.341Z,5.50
2018-08-04T08:10:20.862Z,5.67
2018-08-04T08:12:50.231Z,6.62
2018-08-04T08:15:19.586Z,5.67
2018-08-04T08:17:48.948Z,5.95
2018-08-04T08:20:18.321Z,5.90
2018-08-04T08:22:47.930Z,5.75
2018-08-04T08:25:17.530Z,5.85
2018-08-04T08:28:05.216Z,6.05
2018-08-04T08:30:36.966Z,6.00
2018-08-04T08:33:07.876Z,5.58
2018-08-04T08:35:38.392Z,5.60
2018-08-04T08:38:13.733Z,5.92
2018-08-04T08:40:43.579Z,5.45
2018-08-04T08:43:13.198Z,6.00
2018-08-04T08:45:42.773Z,5.85
2018-08-04T08:48:12.314Z,5.33
2018-08-04T08:50:41.968Z,6.20
2018-08-04T08:53:11.546Z,5.87
2018-08-04T08:55:41.197Z,5.60
2018-08-04T08:58:10.867Z,6.03
2018-08-04T09:00:40.720Z,5.55
2018-08-04T09:03:10.648Z,6.03
2018-08-04T09:05:40.166Z,5.65
2018-08-04T09:08:09.735Z,5.28
2018-08-04T09:10:39.526Z,5.75
2018-08-04T09:13:09.116Z,5.60
2018-08-04T09:15:38.700Z,5.90
2018-08-04T09:18:08.265Z,5.42
2018-08-04T09:20:37.880Z,5.35
2018-08-04T09:23:07.394Z,5.92
2018-08-04T09:25:36.927Z,5.80
2018-08-04T09:28:06.488Z,5.90
2018-08-04T09:30:36.737Z,6.15
2018-08-04T09:33:06.387Z,6.15
2018-08-04T09:35:36.491Z,5.62
2018-08-04T09:38:06.426Z,5.60
2018-08-04T09:40:36.201Z,5.78
2018-08-04T09:43:05.725Z,6.00
2018-08-04T09:45:35.301Z,6.00
2018-08-04T09:48:04.938Z,6.37
2018-08-04T09:50:34.611Z,6.30
2018-08-04T09:53:04.260Z,6.00
2018-08-04T09:55:33.835Z,6.30
2018-08-04T09:58:03.376Z,6.20
2018-08-04T10:00:38.443Z,6.70
2018-08-04T10:03:08.095Z,6.22
2018-08-04T10:05:38.159Z,6.87
2018-08-04T10:08:07.901Z,6.10
2018-08-04T10:10:37.536Z,6.37
2018-08-04T10:13:07.403Z,5.95
2018-08-04T10:15:37.545Z,5.87
2018-08-04T10:18:07.270Z,6.10
2018-08-04T10:20:36.960Z,5.90
2018-08-04T10:23:25.989Z,6.30
2018-08-04T10:25:59.382Z,6.55
2018-08-04T10:28:30.836Z,6.03
2018-08-04T10:31:03.247Z,5.97
2018-08-04T10:33:39.863Z,6.30
2018-08-04T10:36:09.567Z,6.42
2018-08-04T10:38:41.232Z,6.37
2018-08-04T10:43:54.657Z,6.25
2018-08-04T10:46:24.235Z,6.17
2018-08-04T10:48:53.813Z,6.47
2018-08-04T10:51:24.925Z,6.47
2018-08-04T10:53:55.925Z,5.97
2018-08-04T10:56:27.452Z,6.65
2018-08-04T10:59:04.658Z,6.80
2018-08-04T11:01:34.929Z,6.05
2018-08-04T11:04:04.767Z,6.22
2018-08-04T11:06:34.733Z,6.85
2018-08-04T11:09:05.478Z,6.40
2018-08-04T11:11:35.160Z,6.20
2018-08-04T11:14:05.624Z,6.33
2018-08-04T11:16:35.220Z,6.75
2018-08-04T11:19:04.914Z,6.70
2018-08-04T11:21:34.502Z,6.65
2018-08-04T11:24:04.198Z,6.80
2018-08-04T11:26:33.842Z,6.87
2018-08-04T11:29:03.489Z,7.53
2018-08-04T11:31:33.064Z,7.17
2018-08-04T11:34:02.630Z,7.17
2018-08-04T11:36:32.373Z,6.60
2018-08-04T11:39:02.060Z,7.30
2018-08-04T11:41:35.466Z,6.97
2018-08-04T11:44:06.209Z,7.00
2018-08-04T11:46:45.065Z,7.30
2018-08-04T11:49:16.224Z,6.85
2018-08-04T11:51:45.828Z,7.10
2018-08-04T11:54:15.567Z,6.70
2018-08-04T11:56:45.171Z,7.67
2018-08-04T11:59:14.906Z,7.20
2018-08-04T12:01:44.521Z,6.97
2018-08-04T12:04:14.177Z,7.40
2018-08-04T12:06:43.998Z,7.80
2018-08-04T12:09:14.802Z,7.28
2018-08-04T12:11:44.517Z,7.33
2018-08-04T12:14:14.326Z,7.58
2018-08-04T12:16:44.041Z,7.55
2018-08-04T12:19:13.762Z,6.90
2018-08-04T12:21:42.678Z,7.10
2018-08-04T12:24:12.103Z,6.75
2018-08-04T12:26:41.518Z,6.70
2018-08-04T12:29:12.288Z,7.40
2018-08-04T12:31:41.710Z,6.87
2018-08-04T12:34:11.092Z,6.70
2018-08-04T12:36:41.617Z,6.75
2018-08-04T12:39:12.175Z,6.50
2018-08-04T12:41:41.681Z,6.72
2018-08-04T12:44:11.273Z,6.62
2018-08-04T12:46:40.697Z,7.12
2018-08-04T12:49:10.208Z,6.70
2018-08-04T12:51:40.082Z,6.30
2018-08-04T12:54:10.018Z,7.10
2018-08-04T12:56:39.510Z,7.20
2018-08-04T12:59:09.220Z,7.30
2018-08-04T13:01:38.590Z,7.12
2018-08-04T13:04:08.254Z,7.58
2018-08-04T13:06:37.961Z,6.50
2018-08-04T13:09:10.570Z,6.83
2018-08-04T13:11:40.716Z,6.78
2018-08-04T13:14:10.223Z,7.12
2018-08-04T13:16:39.701Z,6.97
2018-08-04T13:19:09.866Z,6.58
2018-08-04T13:21:39.953Z,6.37
2018-08-04T13:24:09.413Z,6.37
2018-08-04T13:26:39.001Z,6.30
2018-08-04T13:29:08.470Z,6.87
2018-08-04T13:31:37.863Z,6.15
2018-08-04T13:34:07.208Z,6.10
2018-08-04T13:36:35.984Z,5.97
2018-08-04T13:39:09.894Z,5.78
2018-08-04T13:41:39.368Z,6.30
2018-08-04T13:44:09.086Z,6.33
2018-08-04T13:46:39.609Z,6.40
2018-08-04T13:49:09.285Z,5.95
2018-08-04T13:51:38.709Z,5.85
2018-08-04T13:54:08.417Z,5.80
2018-08-04T13:56:37.771Z,5.97
2018-08-04T13:59:07.252Z,5.60
2018-08-04T14:01:36.658Z,6.05
2018-08-04T14:04:06.025Z,5.60
2018-08-04T14:06:35.332Z,6.22
2018-08-04T14:09:06.645Z,6.00
2018-08-04T14:11:36.119Z,5.70
2018-08-04T14:14:05.704Z,5.80
2018-08-04T14:16:35.392Z,5.30
2018-08-04T14:19:05.683Z,5.40
2018-08-04T14:21:35.449Z,5.05
2018-08-04T14:24:05.119Z,5.70
2018-08-04T14:26:34.647Z,5.40
2018-08-04T14:29:04.344Z,5.42
2018-08-04T14:31:33.926Z,5.12
2018-08-04T14:34:03.493Z,4.72
2018-08-04T14:36:33.228Z,4.80
2018-08-04T14:39:02.852Z,5.45
2018-08-04T14:41:32.326Z,5.03
2018-08-04T14:44:02.717Z,4.40
2018-08-04T14:46:32.391Z,4.40
2018-08-04T14:49:01.928Z,4.20
2018-08-04T14:51:31.807Z,4.35
2018-08-04T14:54:01.454Z,4.30
2018-08-04T14:56:30.858Z,4.25
2018-08-04T14:59:00.316Z,4.45
2018-08-04T15:01:30.238Z,4.33
2018-08-04T15:03:59.896Z,4.20
2018-08-04T15:06:29.317Z,3.77
2018-08-04T15:08:58.791Z,4.15
2018-08-04T15:11:28.248Z,4.53
2018-08-04T15:13:57.716Z,3.90
2018-08-04T15:16:27.627Z,4.00
2018-08-04T15:18:57.050Z,4.20
2018-08-04T15:21:26.701Z,3.83
2018-08-04T15:23:56.460Z,4.20
2018-08-04T15:26:26.078Z,3.75
2018-08-04T15:28:55.684Z,3.70
2018-08-04T15:31:27.506Z,4.00
2018-08-04T15:33:58.333Z,3.80
2018-08-04T15:36:28.696Z,3.60
2018-08-04T15:38:59.079Z,3.87
2018-08-04T15:41:30.204Z,3.98
2018-08-04T15:43:59.602Z,3.75
2018-08-04T15:46:29.840Z,4.15
2018-08-04T15:48:59.254Z,3.90
2018-08-04T15:51:28.908Z,3.67
2018-08-04T15:53:58.573Z,3.90
2018-08-04T15:56:28.194Z,4.30
2018-08-04T15:58:57.883Z,3.72
2018-08-04T16:01:27.500Z,3.50
2018-08-04T16:03:57.223Z,3.60
2018-08-04T16:06:26.861Z,3.62
2018-08-04T16:08:56.504Z,3.65
2018-08-04T16:11:26.185Z,3.72
2018-08-04T16:13:55.683Z,3.90
2018-08-04T16:16:25.513Z,3.77
2018-08-04T16:18:54.582Z,3.65
2018-08-04T16:21:26.725Z,3.67
2018-08-04T16:23:58.275Z,3.83
2018-08-04T16:26:32.181Z,4.35
2018-08-04T16:29:03.125Z,4.30
2018-08-04T16:31:34.278Z,4.00
2018-08-04T16:34:05.584Z,4.85
2018-08-04T16:36:35.984Z,4.37
2018-08-04T16:39:09.269Z,4.55
2018-08-04T16:41:38.856Z,4.08
2018-08-04T16:44:08.546Z,4.40
2018-08-04T16:46:38.169Z,4.95
2018-08-04T16:49:08.024Z,4.70
2018-08-04T16:51:37.034Z,4.30
2018-08-04T16:54:07.040Z,4.40
2018-08-04T16:56:37.082Z,4.72
2018-08-04T16:59:06.875Z,4.20
2018-08-04T17:01:36.970Z,4.20
2018-08-04T17:04:06.404Z,4.22
2018-08-04T17:06:35.843Z,4.20
2018-08-04T17:09:07.822Z,4.35
2018-08-04T17:11:37.261Z,4.15
2018-08-04T17:14:06.846Z,4.10
2018-08-04T17:16:36.268Z,4.00
2018-08-04T17:19:05.748Z,3.87
2018-08-04T17:21:35.297Z,4.30
2018-08-04T17:24:04.986Z,4.03
2018-08-04T17:26:35.500Z,4.30
2018-08-04T17:29:05.925Z,4.62
2018-08-04T17:31:35.451Z,4.00
2018-08-04T17:34:05.004Z,4.00
2018-08-04T17:36:34.606Z,4.08
2018-08-04T17:39:05.601Z,3.75
2018-08-04T17:41:35.392Z,3.98
2018-08-04T17:44:05.103Z,3.92
2018-08-04T17:46:34.761Z,3.45
2018-08-04T17:49:04.449Z,3.80
2018-08-04T17:51:34.187Z,4.10
2018-08-04T17:54:03.938Z,3.90
2018-08-04T17:56:33.668Z,3.90
2018-08-04T17:59:03.352Z,3.95
2018-08-04T18:01:33.368Z,3.75
2018-08-04T18:04:03.042Z,3.72
2018-08-04T18:06:32.419Z,3.60
2018-08-04T18:09:02.086Z,3.52
2018-08-04T18:11:31.632Z,3.45
2018-08-04T18:14:01.336Z,3.87
2018-08-04T18:16:30.916Z,3.85
2018-08-04T18:19:00.496Z,3.85
2018-08-04T18:21:30.075Z,4.10
2018-08-04T18:23:59.706Z,3.72
2018-08-04T18:26:29.306Z,3.98
2018-08-04T18:28:58.892Z,4.08
2018-08-04T18:31:28.779Z,3.77
2018-08-04T18:33:58.978Z,3.83
2018-08-04T18:36:28.732Z,4.35
2018-08-04T18:38:58.430Z,3.72
2018-08-04T18:41:28.178Z,3.95
2018-08-04T18:43:58.027Z,3.77
2018-08-04T18:46:27.878Z,3.92
2018-08-04T18:48:58.300Z,3.80
2018-08-04T18:51:27.939Z,4.00
2018-08-04T18:54:00.631Z,4.20
2018-08-04T18:56:30.692Z,4.17
2018-08-04T18:59:00.381Z,3.87
2018-08-04T19:01:30.023Z,4.12
2018-08-04T19:03:59.970Z,3.72
2018-08-04T19:06:29.940Z,3.95
2018-08-04T19:08:59.771Z,3.87
2018-08-04T19:11:29.473Z,4.03
2018-08-04T19:13:59.291Z,4.47
2018-08-04T19:16:28.874Z,4.10
2018-08-04T19:18:58.765Z,4.20
2018-08-04T19:21:28.500Z,4.30
2018-08-04T19:23:58.062Z,3.85
2018-08-04T19:26:27.877Z,4.28
2018-08-04T19:28:58.273Z,4.08
2018-08-04T19:31:27.939Z,3.90
2018-08-04T19:33:57.646Z,3.67
2018-08-04T19:36:28.453Z,3.98
2018-08-04T19:39:00.156Z,3.90
2018-08-04T19:41:29.822Z,3.90
2018-08-04T19:43:59.353Z,4.00
2018-08-04T19:46:28.848Z,3.60
2018-08-04T19:48:58.485Z,4.45
2018-08-04T19:51:28.174Z,4.33
2018-08-04T19:53:57.789Z,4.00
2018-08-04T19:56:28.827Z,3.95
2018-08-04T19:59:00.741Z,4.12
2018-08-04T20:01:30.521Z,4.03
2018-08-04T20:04:00.126Z,4.50
2018-08-04T20:06:30.209Z,4.55
2018-08-04T20:09:00.206Z,4.20
2018-08-04T20:11:29.906Z,3.55
2018-08-04T20:13:59.556Z,4.20
2018-08-04T20:16:30.599Z,4.40
2018-08-04T20:19:00.207Z,4.45
2018-08-04T20:21:30.015Z,4.40
2018-08-04T20:24:00.564Z,4.17
2018-08-04T20:26:30.191Z,3.92
2018-08-04T20:29:02.737Z,3.90
2018-08-04T20:31:32.845Z,4.53
2018-08-04T20:34:04.053Z,4.45
2018-08-04T20:36:36.229Z,3.90
2018-08-04T20:39:10.550Z,4.47
2018-08-04T20:41:41.511Z,4.37
2018-08-04T20:44:11.962Z,4.78
2018-08-04T20:46:43.285Z,4.20
2018-08-04T20:49:13.461Z,4.62
2018-08-04T20:51:50.185Z,4.87
2018-08-04T20:54:19.527Z,4.40
2018-08-04T20:56:49.035Z,4.53
2018-08-04T20:59:18.494Z,4.53
2018-08-04T21:01:55.195Z,5.28
2018-08-04T21:04:24.581Z,4.50
2018-08-04T21:06:53.971Z,4.80
2018-08-04T21:09:23.470Z,3.98
2018-08-04T21:11:54.053Z,4.60
2018-08-04T21:14:24.577Z,4.70
2018-08-04T21:16:54.804Z,4.73
2018-08-04T21:19:24.816Z,4.43
2018-08-04T21:21:54.222Z,4.75
2018-08-04T21:24:24.658Z,4.47
2018-08-04T21:26:54.825Z,4.60
2018-08-04T21:29:24.684Z,4.95
2018-08-04T21:31:54.069Z,4.83
2018-08-04T21:34:23.443Z,4.78
2018-08-04T21:36:52.817Z,4.90
2018-08-04T21:39:22.651Z,5.12
2018-08-04T21:41:52.005Z,5.08
2018-08-04T21:44:20.832Z,5.05
2018-08-04T21:46:51.185Z,4.73
2018-08-04T21:49:21.117Z,4.90
2018-08-04T21:51:51.252Z,4.62
2018-08-04T21:54:20.719Z,5.00
2018-08-04T21:56:50.088Z,4.80
2018-08-04T21:59:19.512Z,4.90
2018-08-04T22:01:55.098Z,5.30
2018-08-04T22:04:24.920Z,5.53
2018-08-04T22:07:05.616Z,5.50
2018-08-04T22:09:35.111Z,5.62
2018-08-04T22:12:04.649Z,5.10
2018-08-04T22:14:33.983Z,5.22
2018-08-04T22:17:03.363Z,5.05
2018-08-04T22:19:34.616Z,5.17
2018-08-04T22:22:04.105Z,5.37
2018-08-04T22:24:33.507Z,5.40
2018-08-04T22:27:02.866Z,5.10
2018-08-04T22:29:32.433Z,5.33
2018-08-04T22:32:01.819Z,5.80
2018-08-04T22:34:31.220Z,5.47
2018-08-04T22:37:00.601Z,4.90
2018-08-04T22:39:30.038Z,5.87
2018-08-04T22:41:59.736Z,5.60
2018-08-04T22:44:29.080Z,5.60
2018-08-04T22:46:58.439Z,5.67
2018-08-04T22:49:29.886Z,5.30
2018-08-04T22:51:59.293Z,5.90
2018-08-04T22:54:28.653Z,5.10
2018-08-04T22:56:57.995Z,5.40
2018-08-04T22:59:27.397Z,5.20
2018-08-04T23:01:56.863Z,5.83
2018-08-04T23:04:26.734Z,6.03
2018-08-04T23:06:56.071Z,5.50
2018-08-04T23:09:25.565Z,5.80
2018-08-04T23:11:54.908Z,5.67
2018-08-04T23:14:24.444Z,5.50
2018-08-04T23:16:53.803Z,5.53
2018-08-04T23:19:23.249Z,5.67
2018-08-04T23:21:52.636Z,6.13
2018-08-04T23:24:22.041Z,5.63
2018-08-04T23:26:51.392Z,5.90
2018-08-04T23:29:20.827Z,5.90
2018-08-04T23:31:50.350Z,5.83
2018-08-04T23:34:19.753Z,5.60
2018-08-04T23:36:49.132Z,5.80
2018-08-04T23:39:18.536Z,5.73
2018-08-04T23:41:47.890Z,5.27
2018-08-04T23:44:17.224Z,6.23
2018-08-04T23:46:49.656Z,6.33
2018-08-04T23:49:19.016Z,5.63
2018-08-04T23:51:48.371Z,5.80
2018-08-04T23:54:17.714Z,6.63
2018-08-04T23:56:48.299Z,5.80
2018-08-04T23:59:17.699Z,6.00
